sensor_id;sensor_type;location;lat;lon;timestamp;temperature;humidity
32322;DHT22;61553;48.994;8.940;2023-03-12T00:01:25;-3.90;99.90
32322;DHT22;61553;48.994;8.940;2023-03-12T00:03:52;-4.00;99.90
32322;DHT22;61553;48.994;8.940;2023-03-12T00:06:19;-3.90;99.90
32322;DHT22;61553;48.994;8.940;2023-03-12T00:08:46;-4.00;99.90
32322;DHT22;61553;48.994;8.940;2023-03-12T00:11:14;-4.00;99.90
32322;DHT22;61553;48.994;8.940;2023-03-12T00:13:41;-4.00;99.90
32322;DHT22;61553;48.994;8.940;2023-03-12T00:16:12;-4.00;99.90
32322;DHT22;61553;48.994;8.940;2023-03-12T00:18:38;-4.00;99.90
32322;DHT22;61553;48.994;8.940;2023-03-12T00:21:05;-4.00;99.90
32322;DHT22;61553;48.994;8.940;2023-03-12T00:23:31;-4.00;99.90
32322;DHT22;61553;48.994;8.940;2023-03-12T00:26:01;-4.10;99.90
32322;DHT22;61553;48.994;8.940;2023-03-12T00:28:27;-4.10;99.90
32322;DHT22;61553;48.994;8.940;2023-03-12T00:30:53;-4.10;99.90
32322;DHT22;61553;48.994;8.940;2023-03-12T00:33:19;-4.10;99.90
32322;DHT22;61553;48.994;8.940;2023-03-12T00:35:44;-4.10;99.90
32322;DHT22;61553;48.994;8.940;2023-03-12T00:38:10;-4.10;99.90
32322;DHT22;61553;48.994;8.940;2023-03-12T00:40:36;-4.10;99.90
32322;DHT22;61553;48.994;8.940;2023-03-12T00:43:03;-4.10;99.90
32322;DHT22;61553;48.994;8.940;2023-03-12T00:45:29;-4.10;99.90
32322;DHT22;61553;48.994;8.940;2023-03-12T00:47:54;-4.20;99.90
32322;DHT22;61553;48.994;8.940;2023-03-12T00:50:20;-4.10;99.90
32322;DHT22;61553;48.994;8.940;2023-03-12T00:52:46;-4.10;99.90
32322;DHT22;61553;48.994;8.940;2023-03-12T00:55:11;-4.10;99.90
32322;DHT22;61553;48.994;8.940;2023-03-12T00:57:37;-4.10;99.90
32322;DHT22;61553;48.994;8.940;2023-03-12T01:00:03;-4.10;99.90
32322;DHT22;61553;48.994;8.940;2023-03-12T01:02:34;-4.10;99.90
32322;DHT22;61553;48.994;8.940;2023-03-12T01:04:59;-4.00;99.90
32322;DHT22;61553;48.994;8.940;2023-03-12T01:07:25;-4.10;99.90
32322;DHT22;61553;48.994;8.940;2023-03-12T01:09:51;-4.10;99.90
32322;DHT22;61553;48.994;8.940;2023-03-12T01:12:16;-4.10;99.90
32322;DHT22;61553;48.994;8.940;2023-03-12T01:14:42;-4.10;99.90
32322;DHT22;61553;48.994;8.940;2023-03-12T01:17:07;-4.00;99.90
32322;DHT22;61553;48.994;8.940;2023-03-12T01:19:33;-3.90;99.90
32322;DHT22;61553;48.994;8.940;2023-03-12T01:21:59;-3.90;99.90
32322;DHT22;61553;48.994;8.940;2023-03-12T01:24:24;-3.70;99.90
32322;DHT22;61553;48.994;8.940;2023-03-12T01:26:50;-3.70;99.90
32322;DHT22;61553;48.994;8.940;2023-03-12T01:29:15;-3.60;99.90
32322;DHT22;61553;48.994;8.940;2023-03-12T01:31:41;-3.60;99.90
32322;DHT22;61553;48.994;8.940;2023-03-12T01:34:10;-3.50;99.90
32322;DHT22;61553;48.994;8.940;2023-03-12T01:36:36;-3.50;99.90
32322;DHT22;61553;48.994;8.940;2023-03-12T01:39:02;-3.40;99.90
32322;DHT22;61553;48.994;8.940;2023-03-12T01:41:29;-3.20;99.90
32322;DHT22;61553;48.994;8.940;2023-03-12T01:43:57;-3.10;99.90
32322;DHT22;61553;48.994;8.940;2023-03-12T01:46:33;-3.00;99.90
32322;DHT22;61553;48.994;8.940;2023-03-12T01:51:32;-2.80;99.90
32322;DHT22;61553;48.994;8.940;2023-03-12T01:54:02;-2.80;99.90
32322;DHT22;61553;48.994;8.940;2023-03-12T01:56:32;-2.70;99.90
32322;DHT22;61553;48.994;8.940;2023-03-12T01:59:02;-2.80;99.90
32322;DHT22;61553;48.994;8.940;2023-03-12T02:01:28;-2.80;99.90
32322;DHT22;61553;48.994;8.940;2023-03-12T02:03:55;-2.80;99.90
32322;DHT22;61553;48.994;8.940;2023-03-12T02:06:37;-2.80;99.90
32322;DHT22;61553;48.994;8.940;2023-03-12T02:09:06;-2.80;99.90
32322;DHT22;61553;48.994;8.940;2023-03-12T02:11:31;-2.80;99.90
32322;DHT22;61553;48.994;8.940;2023-03-12T02:13:57;-2.80;99.90
32322;DHT22;61553;48.994;8.940;2023-03-12T02:16:23;-2.90;99.90
32322;DHT22;61553;48.994;8.940;2023-03-12T02:18:51;-2.90;99.90
32322;DHT22;61553;48.994;8.940;2023-03-12T02:21:28;-2.90;99.90
32322;DHT22;61553;48.994;8.940;2023-03-12T02:26:39;-2.90;99.90
32322;DHT22;61553;48.994;8.940;2023-03-12T02:29:06;-2.90;99.90
32322;DHT22;61553;48.994;8.940;2023-03-12T02:31:40;-2.90;99.90
32322;DHT22;61553;48.994;8.940;2023-03-12T02:34:07;-2.90;99.90
32322;DHT22;61553;48.994;8.940;2023-03-12T02:36:34;-2.90;99.90
32322;DHT22;61553;48.994;8.940;2023-03-12T02:38:59;-2.90;99.90
32322;DHT22;61553;48.994;8.940;2023-03-12T02:41:30;-2.80;99.90
32322;DHT22;61553;48.994;8.940;2023-03-12T02:44:06;-2.80;99.90
32322;DHT22;61553;48.994;8.940;2023-03-12T02:46:35;-2.80;99.90
32322;DHT22;61553;48.994;8.940;2023-03-12T02:49:02;-2.70;99.90
32322;DHT22;61553;48.994;8.940;2023-03-12T02:51:28;-2.60;99.90
32322;DHT22;61553;48.994;8.940;2023-03-12T02:53:54;-2.60;99.90
32322;DHT22;61553;48.994;8.940;2023-03-12T02:56:25;-2.60;99.90
32322;DHT22;61553;48.994;8.940;2023-03-12T02:58:51;-2.60;99.90
32322;DHT22;61553;48.994;8.940;2023-03-12T03:01:18;-2.60;99.90
32322;DHT22;61553;48.994;8.940;2023-03-12T03:03:45;-2.50;99.90
32322;DHT22;61553;48.994;8.940;2023-03-12T03:06:11;-2.40;99.90
32322;DHT22;61553;48.994;8.940;2023-03-12T03:08:37;-2.30;99.90
32322;DHT22;61553;48.994;8.940;2023-03-12T03:11:04;-2.20;99.90
32322;DHT22;61553;48.994;8.940;2023-03-12T03:13:30;-2.20;99.90
32322;DHT22;61553;48.994;8.940;2023-03-12T03:15:55;-2.10;99.90
32322;DHT22;61553;48.994;8.940;2023-03-12T03:18:26;-2.10;99.90
32322;DHT22;61553;48.994;8.940;2023-03-12T03:21:01;-1.00;99.90
32322;DHT22;61553;48.994;8.940;2023-03-12T03:23:28;-1.90;99.90
32322;DHT22;61553;48.994;8.940;2023-03-12T03:25:53;-1.80;99.90
32322;DHT22;61553;48.994;8.940;2023-03-12T03:28:21;-1.70;99.90
32322;DHT22;61553;48.994;8.940;2023-03-12T03:30:47;-1.70;99.90
32322;DHT22;61553;48.994;8.940;2023-03-12T03:33:13;-1.50;99.90
32322;DHT22;61553;48.994;8.940;2023-03-12T03:35:39;-1.50;99.90
32322;DHT22;61553;48.994;8.940;2023-03-12T03:38:05;-1.40;99.90
32322;DHT22;61553;48.994;8.940;2023-03-12T03:40:32;-1.30;99.90
32322;DHT22;61553;48.994;8.940;2023-03-12T03:42:57;-1.20;99.90
32322;DHT22;61553;48.994;8.940;2023-03-12T03:45:23;-1.20;99.90
32322;DHT22;61553;48.994;8.940;2023-03-12T03:47:49;-1.10;99.90
32322;DHT22;61553;48.994;8.940;2023-03-12T03:50:14;-1.00;99.90
32322;DHT22;61553;48.994;8.940;2023-03-12T03:52:40;-1.00;99.90
32322;DHT22;61553;48.994;8.940;2023-03-12T03:55:06;-0.90;99.90
32322;DHT22;61553;48.994;8.940;2023-03-12T03:57:32;-0.90;99.90
32322;DHT22;61553;48.994;8.940;2023-03-12T03:59:57;-0.80;99.90
32322;DHT22;61553;48.994;8.940;2023-03-12T04:02:24;-0.70;99.90
32322;DHT22;61553;48.994;8.940;2023-03-12T04:04:50;-0.60;99.90
32322;DHT22;61553;48.994;8.940;2023-03-12T04:07:15;-0.60;99.90
32322;DHT22;61553;48.994;8.940;2023-03-12T04:09:42;0.10;99.90
32322;DHT22;61553;48.994;8.940;2023-03-12T04:12:08;-0.60;99.90
32322;DHT22;61553;48.994;8.940;2023-03-12T04:14:33;-0.50;99.90
32322;DHT22;61553;48.994;8.940;2023-03-12T04:16:59;-0.50;99.90
32322;DHT22;61553;48.994;8.940;2023-03-12T04:19:25;-0.50;99.90
32322;DHT22;61553;48.994;8.940;2023-03-12T04:21:50;-0.40;99.90
32322;DHT22;61553;48.994;8.940;2023-03-12T04:24:17;-0.50;99.90
32322;DHT22;61553;48.994;8.940;2023-03-12T04:26:44;-0.40;99.90
32322;DHT22;61553;48.994;8.940;2023-03-12T04:29:10;-0.40;99.90
32322;DHT22;61553;48.994;8.940;2023-03-12T04:31:36;-0.40;99.90
32322;DHT22;61553;48.994;8.940;2023-03-12T04:34:01;-0.30;99.90
32322;DHT22;61553;48.994;8.940;2023-03-12T04:36:27;-0.30;99.90
32322;DHT22;61553;48.994;8.940;2023-03-12T04:38:54;-0.20;99.90
32322;DHT22;61553;48.994;8.940;2023-03-12T04:41:20;-0.20;99.90
32322;DHT22;61553;48.994;8.940;2023-03-12T04:43:46;-0.10;99.90
32322;DHT22;61553;48.994;8.940;2023-03-12T04:46:11;-0.20;99.90
32322;DHT22;61553;48.994;8.940;2023-03-12T04:48:38;-0.10;99.90
32322;DHT22;61553;48.994;8.940;2023-03-12T04:51:04;-0.10;99.90
32322;DHT22;61553;48.994;8.940;2023-03-12T04:53:30;-0.10;99.90
32322;DHT22;61553;48.994;8.940;2023-03-12T04:55:56;-0.10;99.90
32322;DHT22;61553;48.994;8.940;2023-03-12T04:58:22;0.00;99.90
32322;DHT22;61553;48.994;8.940;2023-03-12T05:00:48;0.00;99.90
32322;DHT22;61553;48.994;8.940;2023-03-12T05:03:15;0.50;99.90
32322;DHT22;61553;48.994;8.940;2023-03-12T05:05:41;0.00;99.90
32322;DHT22;61553;48.994;8.940;2023-03-12T05:08:07;0.00;99.90
32322;DHT22;61553;48.994;8.940;2023-03-12T05:10:33;0.00;99.90
32322;DHT22;61553;48.994;8.940;2023-03-12T05:12:58;0.10;99.90
32322;DHT22;61553;48.994;8.940;2023-03-12T05:15:25;0.10;99.90
32322;DHT22;61553;48.994;8.940;2023-03-12T05:17:50;0.20;99.90
32322;DHT22;61553;48.994;8.940;2023-03-12T05:20:17;0.10;99.90
32322;DHT22;61553;48.994;8.940;2023-03-12T05:22:43;0.20;99.90
32322;DHT22;61553;48.994;8.940;2023-03-12T05:25:10;0.20;99.90
32322;DHT22;61553;48.994;8.940;2023-03-12T05:27:36;0.20;99.90
32322;DHT22;61553;48.994;8.940;2023-03-12T05:30:03;0.30;99.90
32322;DHT22;61553;48.994;8.940;2023-03-12T05:32:29;0.30;99.90
32322;DHT22;61553;48.994;8.940;2023-03-12T05:34:54;0.30;99.90
32322;DHT22;61553;48.994;8.940;2023-03-12T05:37:20;0.30;99.90
32322;DHT22;61553;48.994;8.940;2023-03-12T05:39:46;0.30;99.90
32322;DHT22;61553;48.994;8.940;2023-03-12T05:42:12;0.80;99.90
32322;DHT22;61553;48.994;8.940;2023-03-12T05:44:39;0.40;99.90
32322;DHT22;61553;48.994;8.940;2023-03-12T05:47:05;0.40;99.90
32322;DHT22;61553;48.994;8.940;2023-03-12T05:49:31;0.50;99.90
32322;DHT22;61553;48.994;8.940;2023-03-12T05:51:56;0.50;99.90
32322;DHT22;61553;48.994;8.940;2023-03-12T05:54:22;0.50;99.90
32322;DHT22;61553;48.994;8.940;2023-03-12T05:56:48;0.50;99.90
32322;DHT22;61553;48.994;8.940;2023-03-12T05:59:14;0.50;99.90
32322;DHT22;61553;48.994;8.940;2023-03-12T06:01:40;0.60;99.90
32322;DHT22;61553;48.994;8.940;2023-03-12T06:04:06;0.50;99.90
32322;DHT22;61553;48.994;8.940;2023-03-12T06:06:34;0.50;99.90
32322;DHT22;61553;48.994;8.940;2023-03-12T06:09:00;0.50;99.90
32322;DHT22;61553;48.994;8.940;2023-03-12T06:11:26;0.50;99.90
32322;DHT22;61553;48.994;8.940;2023-03-12T06:13:52;0.60;99.90
32322;DHT22;61553;48.994;8.940;2023-03-12T06:16:23;0.60;99.90
32322;DHT22;61553;48.994;8.940;2023-03-12T06:18:54;0.60;99.90
32322;DHT22;61553;48.994;8.940;2023-03-12T06:21:23;0.70;99.90
32322;DHT22;61553;48.994;8.940;2023-03-12T06:23:49;0.70;99.90
32322;DHT22;61553;48.994;8.940;2023-03-12T06:26:15;0.70;99.90
32322;DHT22;61553;48.994;8.940;2023-03-12T06:28:41;0.80;99.90
32322;DHT22;61553;48.994;8.940;2023-03-12T06:31:07;0.80;99.90
32322;DHT22;61553;48.994;8.940;2023-03-12T06:33:34;0.90;99.90
32322;DHT22;61553;48.994;8.940;2023-03-12T06:36:01;0.90;99.90
32322;DHT22;61553;48.994;8.940;2023-03-12T06:38:27;1.00;99.90
32322;DHT22;61553;48.994;8.940;2023-03-12T06:40:58;1.10;99.90
32322;DHT22;61553;48.994;8.940;2023-03-12T06:43:25;1.20;99.90
32322;DHT22;61553;48.994;8.940;2023-03-12T06:45:53;1.20;99.90
32322;DHT22;61553;48.994;8.940;2023-03-12T06:48:19;1.30;99.90
32322;DHT22;61553;48.994;8.940;2023-03-12T06:50:45;1.30;99.90
32322;DHT22;61553;48.994;8.940;2023-03-12T06:53:11;1.30;99.90
32322;DHT22;61553;48.994;8.940;2023-03-12T06:55:36;1.40;99.90
32322;DHT22;61553;48.994;8.940;2023-03-12T06:58:02;1.40;99.90
32322;DHT22;61553;48.994;8.940;2023-03-12T07:00:29;1.50;99.90
32322;DHT22;61553;48.994;8.940;2023-03-12T07:02:55;1.60;99.90
32322;DHT22;61553;48.994;8.940;2023-03-12T07:05:22;1.60;99.90
32322;DHT22;61553;48.994;8.940;2023-03-12T07:07:48;1.80;99.90
32322;DHT22;61553;48.994;8.940;2023-03-12T07:10:14;1.70;99.90
32322;DHT22;61553;48.994;8.940;2023-03-12T07:12:39;1.70;99.90
32322;DHT22;61553;48.994;8.940;2023-03-12T07:15:05;1.60;99.90
32322;DHT22;61553;48.994;8.940;2023-03-12T07:17:31;1.70;99.90
32322;DHT22;61553;48.994;8.940;2023-03-12T07:19:57;1.80;99.90
32322;DHT22;61553;48.994;8.940;2023-03-12T07:22:23;1.90;99.90
32322;DHT22;61553;48.994;8.940;2023-03-12T07:24:48;1.90;99.90
32322;DHT22;61553;48.994;8.940;2023-03-12T07:27:16;2.00;99.90
32322;DHT22;61553;48.994;8.940;2023-03-12T07:29:42;2.00;99.90
32322;DHT22;61553;48.994;8.940;2023-03-12T07:32:08;2.10;99.90
32322;DHT22;61553;48.994;8.940;2023-03-12T07:34:33;2.00;99.90
32322;DHT22;61553;48.994;8.940;2023-03-12T07:36:59;2.10;99.90
32322;DHT22;61553;48.994;8.940;2023-03-12T07:39:25;2.20;99.90
32322;DHT22;61553;48.994;8.940;2023-03-12T07:41:51;2.30;99.90
32322;DHT22;61553;48.994;8.940;2023-03-12T07:44:16;2.40;99.90
32322;DHT22;61553;48.994;8.940;2023-03-12T07:46:42;2.50;99.90
32322;DHT22;61553;48.994;8.940;2023-03-12T07:49:08;2.60;99.90
32322;DHT22;61553;48.994;8.940;2023-03-12T07:51:33;2.50;99.90
32322;DHT22;61553;48.994;8.940;2023-03-12T07:53:59;2.60;99.90
32322;DHT22;61553;48.994;8.940;2023-03-12T07:56:24;2.50;99.90
32322;DHT22;61553;48.994;8.940;2023-03-12T07:58:50;2.50;99.90
32322;DHT22;61553;48.994;8.940;2023-03-12T08:01:16;2.60;99.90
32322;DHT22;61553;48.994;8.940;2023-03-12T08:03:41;2.70;99.90
32322;DHT22;61553;48.994;8.940;2023-03-12T08:06:07;2.70;99.90
32322;DHT22;61553;48.994;8.940;2023-03-12T08:08:33;2.80;99.90
32322;DHT22;61553;48.994;8.940;2023-03-12T08:11:02;2.90;99.90
32322;DHT22;61553;48.994;8.940;2023-03-12T08:13:28;3.00;99.90
32322;DHT22;61553;48.994;8.940;2023-03-12T08:15:54;3.00;99.90
32322;DHT22;61553;48.994;8.940;2023-03-12T08:18:20;3.00;99.90
32322;DHT22;61553;48.994;8.940;2023-03-12T08:20:51;3.00;99.90
32322;DHT22;61553;48.994;8.940;2023-03-12T08:23:18;3.10;99.90
32322;DHT22;61553;48.994;8.940;2023-03-12T08:25:45;3.00;99.90
32322;DHT22;61553;48.994;8.940;2023-03-12T08:28:11;3.20;99.90
32322;DHT22;61553;48.994;8.940;2023-03-12T08:30:37;3.30;99.90
32322;DHT22;61553;48.994;8.940;2023-03-12T08:33:03;3.40;99.90
32322;DHT22;61553;48.994;8.940;2023-03-12T08:35:28;3.40;99.90
32322;DHT22;61553;48.994;8.940;2023-03-12T08:37:54;3.60;99.90
32322;DHT22;61553;48.994;8.940;2023-03-12T08:40:22;3.60;99.90
32322;DHT22;61553;48.994;8.940;2023-03-12T08:42:48;3.60;99.90
32322;DHT22;61553;48.994;8.940;2023-03-12T08:45:14;3.60;99.90
32322;DHT22;61553;48.994;8.940;2023-03-12T08:47:41;3.50;99.90
32322;DHT22;61553;48.994;8.940;2023-03-12T08:50:07;3.50;99.90
32322;DHT22;61553;48.994;8.940;2023-03-12T08:52:33;3.50;99.90
32322;DHT22;61553;48.994;8.940;2023-03-12T08:54:58;3.60;99.90
32322;DHT22;61553;48.994;8.940;2023-03-12T08:57:24;3.60;99.90
32322;DHT22;61553;48.994;8.940;2023-03-12T08:59:50;3.80;99.90
32322;DHT22;61553;48.994;8.940;2023-03-12T09:02:15;3.70;99.90
32322;DHT22;61553;48.994;8.940;2023-03-12T09:04:41;3.90;99.90
32322;DHT22;61553;48.994;8.940;2023-03-12T09:07:06;3.80;99.90
32322;DHT22;61553;48.994;8.940;2023-03-12T09:09:34;3.90;99.90
32322;DHT22;61553;48.994;8.940;2023-03-12T09:11:59;4.00;99.90
32322;DHT22;61553;48.994;8.940;2023-03-12T09:14:25;4.20;99.90
32322;DHT22;61553;48.994;8.940;2023-03-12T09:16:50;4.10;99.90
32322;DHT22;61553;48.994;8.940;2023-03-12T09:19:16;4.20;99.90
32322;DHT22;61553;48.994;8.940;2023-03-12T09:21:42;4.30;99.90
32322;DHT22;61553;48.994;8.940;2023-03-12T09:24:08;4.50;99.90
32322;DHT22;61553;48.994;8.940;2023-03-12T09:26:34;4.60;99.90
32322;DHT22;61553;48.994;8.940;2023-03-12T09:29:00;4.70;99.90
32322;DHT22;61553;48.994;8.940;2023-03-12T09:31:25;4.60;99.90
32322;DHT22;61553;48.994;8.940;2023-03-12T09:33:51;4.60;99.90
32322;DHT22;61553;48.994;8.940;2023-03-12T09:36:17;4.80;99.90
32322;DHT22;61553;48.994;8.940;2023-03-12T09:38:43;4.80;99.90
32322;DHT22;61553;48.994;8.940;2023-03-12T09:41:20;5.00;99.90
32322;DHT22;61553;48.994;8.940;2023-03-12T09:44:09;5.20;99.90
32322;DHT22;61553;48.994;8.940;2023-03-12T09:47:09;5.20;99.90
32322;DHT22;61553;48.994;8.940;2023-03-12T09:49:39;5.30;99.90
32322;DHT22;61553;48.994;8.940;2023-03-12T09:52:27;5.30;99.90
32322;DHT22;61553;48.994;8.940;2023-03-12T09:55:21;5.40;99.90
32322;DHT22;61553;48.994;8.940;2023-03-12T09:57:49;5.50;99.90
32322;DHT22;61553;48.994;8.940;2023-03-12T10:00:33;5.40;99.90
32322;DHT22;61553;48.994;8.940;2023-03-12T10:03:22;5.40;99.90
32322;DHT22;61553;48.994;8.940;2023-03-12T10:06:22;5.40;99.90
32322;DHT22;61553;48.994;8.940;2023-03-12T10:19:33;5.90;99.90
32322;DHT22;61553;48.994;8.940;2023-03-12T10:24:43;6.00;99.90
32322;DHT22;61553;48.994;8.940;2023-03-12T10:27:15;6.10;99.90
32322;DHT22;61553;48.994;8.940;2023-03-12T10:29:44;6.10;99.90
32322;DHT22;61553;48.994;8.940;2023-03-12T10:32:16;6.10;99.90
32322;DHT22;61553;48.994;8.940;2023-03-12T10:37:25;6.10;99.90
32322;DHT22;61553;48.994;8.940;2023-03-12T10:39:53;6.20;99.90
32322;DHT22;61553;48.994;8.940;2023-03-12T10:42:26;6.30;99.90
32322;DHT22;61553;48.994;8.940;2023-03-12T10:44:55;6.40;99.90
32322;DHT22;61553;48.994;8.940;2023-03-12T10:47:35;6.40;99.90
32322;DHT22;61553;48.994;8.940;2023-03-12T10:50:13;6.50;99.90
32322;DHT22;61553;48.994;8.940;2023-03-12T10:52:40;6.60;99.90
32322;DHT22;61553;48.994;8.940;2023-03-12T10:55:25;6.60;99.90
32322;DHT22;61553;48.994;8.940;2023-03-12T10:57:52;6.80;99.90
32322;DHT22;61553;48.994;8.940;2023-03-12T11:00:29;6.80;99.90
32322;DHT22;61553;48.994;8.940;2023-03-12T11:05:35;7.30;99.90
32322;DHT22;61553;48.994;8.940;2023-03-12T11:08:02;7.80;99.90
32322;DHT22;61553;48.994;8.940;2023-03-12T11:10:46;8.10;99.90
32322;DHT22;61553;48.994;8.940;2023-03-12T11:13:33;8.70;99.90
32322;DHT22;61553;48.994;8.940;2023-03-12T11:16:01;9.20;99.90
32322;DHT22;61553;48.994;8.940;2023-03-12T11:21:17;9.90;99.90
32322;DHT22;61553;48.994;8.940;2023-03-12T11:23:53;10.40;99.90
32322;DHT22;61553;48.994;8.940;2023-03-12T11:26:32;10.70;99.90
32322;DHT22;61553;48.994;8.940;2023-03-12T11:34:31;10.70;99.90
32322;DHT22;61553;48.994;8.940;2023-03-12T11:42:23;10.20;99.90
32322;DHT22;61553;48.994;8.940;2023-03-12T11:56:12;10.00;99.90
32322;DHT22;61553;48.994;8.940;2023-03-12T11:58:56;10.10;99.90
32322;DHT22;61553;48.994;8.940;2023-03-12T12:04:33;10.30;99.90
32322;DHT22;61553;48.994;8.940;2023-03-12T12:07:26;10.30;99.90
32322;DHT22;61553;48.994;8.940;2023-03-12T12:10:02;10.30;99.90
32322;DHT22;61553;48.994;8.940;2023-03-12T12:15:27;10.20;99.90
32322;DHT22;61553;48.994;8.940;2023-03-12T12:20:47;10.20;99.90
32322;DHT22;61553;48.994;8.940;2023-03-12T12:26:13;10.30;99.90
32322;DHT22;61553;48.994;8.940;2023-03-12T12:31:55;10.90;99.90
32322;DHT22;61553;48.994;8.940;2023-03-12T12:43:03;10.90;99.90
32322;DHT22;61553;48.994;8.940;2023-03-12T12:45:31;10.90;99.90
32322;DHT22;61553;48.994;8.940;2023-03-12T12:48:11;11.00;99.90
32322;DHT22;61553;48.994;8.940;2023-03-12T12:50:38;11.10;99.90
32322;DHT22;61553;48.994;8.940;2023-03-12T12:56:24;11.30;99.90
32322;DHT22;61553;48.994;8.940;2023-03-12T12:59:01;11.30;99.90
32322;DHT22;61553;48.994;8.940;2023-03-12T13:01:31;11.40;99.90
32322;DHT22;61553;48.994;8.940;2023-03-12T13:04:14;11.50;99.90
32322;DHT22;61553;48.994;8.940;2023-03-12T13:09:52;11.60;99.90
32322;DHT22;61553;48.994;8.940;2023-03-12T13:12:31;11.60;99.90
32322;DHT22;61553;48.994;8.940;2023-03-12T13:14:58;11.50;99.90
32322;DHT22;61553;48.994;8.940;2023-03-12T13:17:34;11.40;99.90
32322;DHT22;61553;48.994;8.940;2023-03-12T13:22:56;11.30;99.90
32322;DHT22;61553;48.994;8.940;2023-03-12T13:28:33;12.00;99.90
32322;DHT22;61553;48.994;8.940;2023-03-12T13:36:22;12.30;99.90
32322;DHT22;61553;48.994;8.940;2023-03-12T13:46:53;11.70;99.90
32322;DHT22;61553;48.994;8.940;2023-03-12T13:49:22;11.60;99.90
32322;DHT22;61553;48.994;8.940;2023-03-12T13:51:58;11.60;99.90
32322;DHT22;61553;48.994;8.940;2023-03-12T13:54:30;11.80;99.90
32322;DHT22;61553;48.994;8.940;2023-03-12T13:57:03;11.90;99.90
32322;DHT22;61553;48.994;8.940;2023-03-12T13:59:34;12.00;99.90
32322;DHT22;61553;48.994;8.940;2023-03-12T14:02:04;12.00;99.90
32322;DHT22;61553;48.994;8.940;2023-03-12T14:04:36;12.00;99.90
32322;DHT22;61553;48.994;8.940;2023-03-12T14:07:27;12.20;99.90
32322;DHT22;61553;48.994;8.940;2023-03-12T14:10:05;12.30;99.90
32322;DHT22;61553;48.994;8.940;2023-03-12T14:18:22;12.50;99.90
32322;DHT22;61553;48.994;8.940;2023-03-12T14:21:00;12.50;99.90
32322;DHT22;61553;48.994;8.940;2023-03-12T14:23:29;12.50;99.90
32322;DHT22;61553;48.994;8.940;2023-03-12T14:26:04;12.60;99.90
32322;DHT22;61553;48.994;8.940;2023-03-12T14:28:32;12.80;99.90
32322;DHT22;61553;48.994;8.940;2023-03-12T14:31:06;12.90;99.90
32322;DHT22;61553;48.994;8.940;2023-03-12T14:33:41;13.10;99.90
32322;DHT22;61553;48.994;8.940;2023-03-12T14:36:15;13.20;99.90
32322;DHT22;61553;48.994;8.940;2023-03-12T14:38:45;13.20;99.90
32322;DHT22;61553;48.994;8.940;2023-03-12T14:41:36;13.20;99.90
32322;DHT22;61553;48.994;8.940;2023-03-12T14:44:27;13.20;99.90
32322;DHT22;61553;48.994;8.940;2023-03-12T14:47:05;13.20;99.90
32322;DHT22;61553;48.994;8.940;2023-03-12T14:49:42;13.20;99.90
32322;DHT22;61553;48.994;8.940;2023-03-12T14:52:14;13.20;99.90
32322;DHT22;61553;48.994;8.940;2023-03-12T14:55:01;13.20;99.90
32322;DHT22;61553;48.994;8.940;2023-03-12T14:57:27;13.30;99.90
32322;DHT22;61553;48.994;8.940;2023-03-12T14:59:57;13.30;99.90
32322;DHT22;61553;48.994;8.940;2023-03-12T15:02:24;13.20;99.90
32322;DHT22;61553;48.994;8.940;2023-03-12T15:04:52;13.20;99.90
32322;DHT22;61553;48.994;8.940;2023-03-12T15:07:30;12.90;99.90
32322;DHT22;61553;48.994;8.940;2023-03-12T15:09:56;12.70;99.90
32322;DHT22;61553;48.994;8.940;2023-03-12T15:12:32;12.70;99.90
32322;DHT22;61553;48.994;8.940;2023-03-12T15:15:10;12.70;99.90
32322;DHT22;61553;48.994;8.940;2023-03-12T15:17:42;12.60;99.90
32322;DHT22;61553;48.994;8.940;2023-03-12T15:20:14;12.50;99.90
32322;DHT22;61553;48.994;8.940;2023-03-12T15:22:40;12.60;99.90
32322;DHT22;61553;48.994;8.940;2023-03-12T15:27:48;12.40;99.90
32322;DHT22;61553;48.994;8.940;2023-03-12T15:30:25;12.40;99.90
32322;DHT22;61553;48.994;8.940;2023-03-12T15:35:34;12.40;99.90
32322;DHT22;61553;48.994;8.940;2023-03-12T15:38:01;12.40;99.90
32322;DHT22;61553;48.994;8.940;2023-03-12T15:40:28;12.30;99.90
32322;DHT22;61553;48.994;8.940;2023-03-12T15:42:54;12.20;99.90
32322;DHT22;61553;48.994;8.940;2023-03-12T15:45:28;12.30;99.90
32322;DHT22;61553;48.994;8.940;2023-03-12T15:47:56;12.30;99.90
32322;DHT22;61553;48.994;8.940;2023-03-12T15:50:41;12.30;99.90
32322;DHT22;61553;48.994;8.940;2023-03-12T15:55:36;12.30;99.90
32322;DHT22;61553;48.994;8.940;2023-03-12T15:58:26;12.30;99.90
32322;DHT22;61553;48.994;8.940;2023-03-12T16:00:53;12.30;99.90
32322;DHT22;61553;48.994;8.940;2023-03-12T16:03:19;12.40;99.90
32322;DHT22;61553;48.994;8.940;2023-03-12T16:05:46;12.40;99.90
32322;DHT22;61553;48.994;8.940;2023-03-12T16:08:21;12.40;99.90
32322;DHT22;61553;48.994;8.940;2023-03-12T16:10:50;12.40;99.90
32322;DHT22;61553;48.994;8.940;2023-03-12T16:13:19;12.40;99.90
32322;DHT22;61553;48.994;8.940;2023-03-12T16:15:45;12.30;99.90
32322;DHT22;61553;48.994;8.940;2023-03-12T16:18:13;12.30;99.90
32322;DHT22;61553;48.994;8.940;2023-03-12T16:20:39;12.30;99.90
32322;DHT22;61553;48.994;8.940;2023-03-12T16:23:05;12.20;99.90
32322;DHT22;61553;48.994;8.940;2023-03-12T16:25:31;12.20;99.90
32322;DHT22;61553;48.994;8.940;2023-03-12T16:27:59;12.10;99.90
32322;DHT22;61553;48.994;8.940;2023-03-12T16:30:28;12.10;99.90
32322;DHT22;61553;48.994;8.940;2023-03-12T16:32:54;12.00;99.90
32322;DHT22;61553;48.994;8.940;2023-03-12T16:35:20;12.00;99.90
32322;DHT22;61553;48.994;8.940;2023-03-12T16:37:46;11.90;99.90
32322;DHT22;61553;48.994;8.940;2023-03-12T16:40:12;11.80;99.90
32322;DHT22;61553;48.994;8.940;2023-03-12T16:42:41;11.70;99.90
32322;DHT22;61553;48.994;8.940;2023-03-12T16:45:11;11.70;99.90
32322;DHT22;61553;48.994;8.940;2023-03-12T16:47:38;11.80;99.90
32322;DHT22;61553;48.994;8.940;2023-03-12T16:50:17;11.80;99.90
32322;DHT22;61553;48.994;8.940;2023-03-12T16:52:43;11.70;99.90
32322;DHT22;61553;48.994;8.940;2023-03-12T16:55:14;11.70;99.90
32322;DHT22;61553;48.994;8.940;2023-03-12T16:57:44;11.60;99.90
32322;DHT22;61553;48.994;8.940;2023-03-12T17:00:22;11.50;99.90
32322;DHT22;61553;48.994;8.940;2023-03-12T17:02:49;11.50;99.90
32322;DHT22;61553;48.994;8.940;2023-03-12T17:05:19;11.40;99.90
32322;DHT22;61553;48.994;8.940;2023-03-12T17:07:45;11.40;99.90
32322;DHT22;61553;48.994;8.940;2023-03-12T17:10:13;11.30;99.90
32322;DHT22;61553;48.994;8.940;2023-03-12T17:12:39;11.20;99.90
32322;DHT22;61553;48.994;8.940;2023-03-12T17:15:26;11.10;99.90
32322;DHT22;61553;48.994;8.940;2023-03-12T17:17:53;11.00;99.90
32322;DHT22;61553;48.994;8.940;2023-03-12T17:20:21;10.90;99.90
32322;DHT22;61553;48.994;8.940;2023-03-12T17:22:47;10.90;99.90
32322;DHT22;61553;48.994;8.940;2023-03-12T17:25:23;10.70;99.90
32322;DHT22;61553;48.994;8.940;2023-03-12T17:27:49;10.60;99.90
32322;DHT22;61553;48.994;8.940;2023-03-12T17:30:14;10.50;99.90
32322;DHT22;61553;48.994;8.940;2023-03-12T17:32:40;10.30;99.90
32322;DHT22;61553;48.994;8.940;2023-03-12T17:35:06;10.20;99.90
32322;DHT22;61553;48.994;8.940;2023-03-12T17:37:33;10.00;99.90
32322;DHT22;61553;48.994;8.940;2023-03-12T17:39:58;9.90;99.90